createdAt,value
2023-04-15T00:00:58.437Z,3.13
2023-04-15T00:03:25.510Z,2.83
2023-04-15T00:05:52.286Z,2.63
2023-04-15T00:08:19.483Z,2.85
2023-04-15T00:10:46.812Z,3.15
2023-04-15T00:13:13.512Z,3.03
2023-04-15T00:15:40.015Z,3.33
2023-04-15T00:18:08.298Z,3.33
2023-04-15T00:23:02.636Z,2.85
2023-04-15T00:25:29.263Z,2.97
2023-04-15T00:27:55.862Z,3.10
2023-04-15T00:30:23.850Z,3.80
2023-04-15T00:32:50.891Z,3.42
2023-04-15T00:35:17.600Z,4.25
2023-04-15T00:37:46.007Z,3.67
2023-04-15T00:40:13.755Z,3.10
2023-04-15T00:42:40.333Z,3.22
2023-04-15T00:45:08.877Z,3.35
2023-04-15T00:47:37.301Z,3.50
2023-04-15T00:50:04.057Z,3.40
2023-04-15T00:52:30.786Z,4.10
2023-04-15T00:54:57.681Z,2.78
2023-04-15T00:57:24.531Z,3.90
2023-04-15T00:59:51.483Z,3.40
2023-04-15T01:02:18.336Z,3.15
2023-04-15T01:04:45.177Z,3.20
2023-04-15T01:07:11.999Z,3.85
2023-04-15T01:09:38.561Z,3.67
2023-04-15T01:12:07.140Z,2.92
2023-04-15T01:14:33.783Z,3.47
2023-04-15T01:17:00.827Z,3.65
2023-04-15T01:19:27.669Z,3.90
2023-04-15T01:21:54.558Z,3.53
2023-04-15T01:24:21.453Z,3.40
2023-04-15T01:26:49.818Z,3.45
2023-04-15T01:29:16.583Z,3.67
2023-04-15T01:31:51.186Z,3.90
2023-04-15T01:34:18.184Z,4.25
2023-04-15T01:36:44.756Z,3.72
2023-04-15T01:39:11.277Z,3.63
2023-04-15T01:41:37.847Z,3.15
2023-04-15T01:44:04.377Z,4.63
2023-04-15T01:46:31.377Z,4.00
2023-04-15T01:48:58.136Z,3.50
2023-04-15T01:51:24.807Z,4.00
2023-04-15T01:53:52.250Z,3.80
2023-04-15T01:56:18.849Z,3.42
2023-04-15T01:58:45.521Z,3.50
2023-04-15T02:01:13.118Z,3.63
2023-04-15T02:03:39.679Z,3.75
2023-04-15T02:06:06.324Z,3.85
2023-04-15T02:08:32.867Z,4.18
2023-04-15T02:10:59.406Z,3.75
2023-04-15T02:13:25.934Z,4.22
2023-04-15T02:15:53.009Z,3.67
2023-04-15T02:18:19.546Z,4.00
2023-04-15T02:20:47.039Z,4.03
2023-04-15T02:23:13.813Z,4.13
2023-04-15T02:25:40.483Z,4.25
2023-04-15T02:28:07.125Z,4.90
2023-04-15T02:30:33.990Z,4.68
2023-04-15T02:33:01.081Z,4.72
2023-04-15T02:35:27.800Z,4.90
2023-04-15T02:37:54.516Z,4.80
2023-04-15T02:40:20.996Z,4.93
2023-04-15T02:42:47.548Z,4.63
2023-04-15T02:45:14.151Z,5.18
2023-04-15T02:47:44.421Z,4.78
2023-04-15T02:50:13.001Z,5.15
2023-04-15T02:52:41.667Z,4.68
2023-04-15T02:55:09.671Z,4.78
2023-04-15T02:57:40.677Z,5.13
2023-04-15T03:00:09.703Z,4.95
2023-04-15T03:02:38.101Z,4.43
2023-04-15T03:05:05.956Z,4.85
2023-04-15T03:07:32.642Z,4.85
2023-04-15T03:09:59.178Z,4.75
2023-04-15T03:12:25.731Z,5.10
2023-04-15T03:14:52.241Z,4.95
2023-04-15T03:17:18.832Z,4.72
2023-04-15T03:19:45.398Z,4.72
2023-04-15T03:22:11.904Z,5.57
2023-04-15T03:24:38.377Z,5.03
2023-04-15T03:27:06.334Z,4.70
2023-04-15T03:29:32.828Z,4.97
2023-04-15T03:31:59.403Z,4.30
2023-04-15T03:34:25.988Z,5.05
2023-04-15T03:36:52.567Z,4.45
2023-04-15T03:39:19.027Z,4.90
2023-04-15T03:41:45.752Z,5.43
2023-04-15T03:44:12.262Z,4.90
2023-04-15T03:46:38.858Z,5.38
2023-04-15T03:49:07.152Z,5.00
2023-04-15T03:51:33.715Z,5.30
2023-04-15T03:54:00.230Z,4.88
2023-04-15T03:56:27.028Z,5.10
2023-04-15T03:58:53.537Z,5.05
2023-04-15T04:01:20.073Z,5.07
2023-04-15T04:03:46.748Z,4.70
2023-04-15T04:06:13.387Z,5.25
2023-04-15T04:08:39.904Z,5.95
2023-04-15T04:11:06.759Z,5.75
2023-04-15T04:13:33.383Z,5.20
2023-04-15T04:16:00.086Z,5.05
2023-04-15T04:18:26.719Z,5.50
2023-04-15T04:20:53.267Z,5.03
2023-04-15T04:23:19.753Z,5.45
2023-04-15T04:25:46.352Z,5.43
2023-04-15T04:28:12.896Z,5.30
2023-04-15T04:30:40.053Z,5.80
2023-04-15T04:33:07.299Z,5.93
2023-04-15T04:35:35.030Z,5.45
2023-04-15T04:38:03.109Z,5.05
2023-04-15T04:40:29.578Z,5.43
2023-04-15T04:42:56.142Z,6.60
2023-04-15T04:45:22.760Z,5.55
2023-04-15T04:47:49.316Z,5.85
2023-04-15T04:50:16.583Z,6.07
2023-04-15T04:52:43.221Z,5.43
2023-04-15T04:55:09.730Z,5.53
2023-04-15T04:57:36.501Z,5.93
2023-04-15T05:00:04.976Z,5.82
2023-04-15T05:02:32.525Z,5.95
2023-04-15T05:04:59.144Z,5.63
2023-04-15T05:07:25.731Z,6.25
2023-04-15T05:09:52.305Z,6.55
2023-04-15T05:12:18.877Z,6.22
2023-04-15T05:14:46.814Z,5.75
2023-04-15T05:17:14.105Z,6.28
2023-04-15T05:19:40.843Z,6.20
2023-04-15T05:22:07.910Z,6.43
2023-04-15T05:24:34.463Z,6.40
2023-04-15T05:27:02.170Z,6.43
2023-04-15T05:29:29.678Z,7.13
2023-04-15T05:31:56.708Z,5.97
2023-04-15T05:34:23.253Z,6.30
2023-04-15T05:36:49.912Z,5.93
2023-04-15T05:39:16.576Z,6.00
2023-04-15T05:41:43.084Z,6.55
2023-04-15T05:44:09.593Z,5.93
2023-04-15T05:46:36.380Z,5.80
2023-04-15T05:49:03.206Z,6.05
2023-04-15T05:51:29.908Z,6.78
2023-04-15T05:53:56.414Z,6.32
2023-04-15T05:56:22.978Z,5.90
2023-04-15T05:58:50.547Z,6.47
2023-04-15T06:01:17.923Z,6.53
2023-04-15T06:03:44.926Z,6.30
2023-04-15T06:06:11.559Z,6.53
2023-04-15T06:08:38.286Z,5.75
2023-04-15T06:11:04.837Z,5.90
2023-04-15T06:13:31.372Z,6.38
2023-04-15T06:15:57.915Z,6.95
2023-04-15T06:18:24.715Z,6.13
2023-04-15T06:20:51.885Z,6.40
2023-04-15T06:23:18.435Z,6.57
2023-04-15T06:25:44.985Z,6.63
2023-04-15T06:28:11.427Z,6.78
2023-04-15T06:30:38.523Z,6.70
2023-04-15T06:33:06.692Z,6.38
2023-04-15T06:35:33.351Z,5.85
2023-04-15T06:37:59.824Z,6.50
2023-04-15T06:40:26.785Z,6.95
2023-04-15T06:42:53.326Z,5.90
2023-04-15T06:45:19.833Z,6.32
2023-04-15T06:47:46.668Z,5.97
2023-04-15T06:50:13.511Z,6.28
2023-04-15T06:52:40.918Z,6.82
2023-04-15T06:55:07.981Z,6.57
2023-04-15T06:57:35.136Z,6.03
2023-04-15T07:00:02.274Z,6.82
2023-04-15T07:02:28.958Z,6.60
2023-04-15T07:04:57.004Z,6.80
2023-04-15T07:07:23.484Z,8.60
2023-04-15T07:09:50.220Z,6.88
2023-04-15T07:12:16.761Z,6.65
2023-04-15T07:14:43.412Z,6.68
2023-04-15T07:17:10.041Z,6.50
2023-04-15T07:19:36.855Z,5.80
2023-04-15T07:22:03.857Z,6.50
2023-04-15T07:24:31.114Z,7.15
2023-04-15T07:27:01.269Z,6.25
2023-04-15T07:29:28.068Z,6.88
2023-04-15T07:31:54.637Z,6.20
2023-04-15T07:34:21.269Z,6.30
2023-04-15T07:36:51.851Z,5.90
2023-04-15T07:39:19.044Z,6.18
2023-04-15T07:41:45.597Z,6.60
2023-04-15T07:44:12.142Z,6.13
2023-04-15T07:46:38.940Z,5.68
2023-04-15T07:49:05.585Z,5.63
2023-04-15T07:51:33.363Z,6.20
2023-04-15T07:53:59.978Z,6.13
2023-04-15T07:56:26.555Z,6.18
2023-04-15T07:58:53.323Z,4.88
2023-04-15T08:01:19.903Z,5.20
2023-04-15T08:03:47.292Z,5.38
2023-04-15T08:06:14.299Z,5.22
2023-04-15T08:08:40.834Z,4.97
2023-04-15T08:11:07.446Z,5.75
2023-04-15T08:13:34.032Z,5.88
2023-04-15T08:16:23.420Z,5.70
2023-04-15T08:18:51.522Z,5.97
2023-04-15T08:21:18.823Z,5.53
2023-04-15T08:23:50.202Z,5.47
2023-04-15T08:26:17.654Z,5.20
2023-04-15T08:28:45.464Z,5.03
2023-04-15T08:31:13.492Z,5.45
2023-04-15T08:33:40.234Z,5.35
2023-04-15T08:36:07.581Z,5.25
2023-04-15T08:38:34.789Z,5.88
2023-04-15T08:41:05.150Z,6.65
2023-04-15T08:43:35.256Z,5.78
2023-04-15T08:46:02.497Z,5.93
2023-04-15T08:48:29.976Z,6.35
2023-04-15T08:50:56.876Z,6.85
2023-04-15T08:53:24.639Z,6.78
2023-04-15T08:55:56.506Z,7.18
2023-04-15T08:58:23.427Z,6.57
2023-04-15T09:00:50.188Z,6.10
2023-04-15T09:03:17.760Z,6.28
2023-04-15T09:05:44.430Z,6.63
2023-04-15T09:08:10.975Z,6.32
2023-04-15T09:10:38.449Z,6.03
2023-04-15T09:13:04.940Z,6.60
2023-04-15T09:15:32.996Z,7.55
2023-04-15T09:20:26.394Z,8.23
2023-04-15T09:22:52.974Z,8.57
2023-04-15T09:25:27.546Z,8.18
2023-04-15T09:27:59.298Z,7.80
2023-04-15T09:30:26.512Z,6.25
2023-04-15T09:32:55.000Z,6.82
2023-04-15T09:35:22.472Z,6.75
2023-04-15T09:37:52.540Z,5.80
2023-04-15T09:40:35.082Z,5.03
2023-04-15T09:43:02.603Z,5.18
2023-04-15T09:45:29.856Z,5.75
2023-04-15T09:47:59.214Z,4.50
2023-04-15T09:50:29.633Z,6.60
2023-04-15T09:52:56.477Z,5.32
2023-04-15T09:55:23.106Z,5.10
2023-04-15T09:57:49.667Z,4.82
2023-04-15T10:00:16.415Z,4.97
2023-04-15T10:02:43.298Z,4.63
2023-04-15T10:05:16.326Z,5.00
2023-04-15T10:07:43.439Z,4.63
2023-04-15T10:10:11.100Z,3.65
2023-04-15T10:12:38.256Z,3.67
2023-04-15T10:15:05.963Z,3.47
2023-04-15T10:17:35.553Z,3.05
2023-04-15T10:20:04.798Z,2.63
2023-04-15T10:22:32.790Z,2.47
2023-04-15T10:27:27.846Z,2.60
2023-04-15T10:29:54.592Z,3.42
2023-04-15T10:32:21.880Z,2.63
2023-04-15T10:34:49.597Z,2.25
2023-04-15T10:37:34.408Z,2.83
2023-04-15T10:40:00.971Z,2.90
2023-04-15T10:42:34.799Z,2.50
2023-04-15T10:45:01.391Z,2.70
2023-04-15T10:47:28.551Z,2.78
2023-04-15T10:50:00.425Z,2.20
2023-04-15T10:52:28.765Z,2.88
2023-04-15T10:55:19.702Z,2.10
2023-04-15T10:57:46.337Z,2.30
2023-04-15T11:00:14.936Z,2.30
2023-04-15T11:02:56.517Z,2.08
2023-04-15T11:05:39.258Z,2.50
2023-04-15T11:08:05.764Z,1.88
2023-04-15T11:10:32.237Z,2.70
2023-04-15T11:13:01.233Z,2.50
2023-04-15T11:15:36.806Z,2.38
2023-04-15T11:18:10.127Z,2.22
2023-04-15T11:20:37.411Z,2.45
2023-04-15T11:23:14.122Z,2.38
2023-04-15T11:25:42.846Z,2.42
2023-04-15T11:28:09.482Z,2.42
2023-04-15T11:30:37.597Z,2.63
2023-04-15T11:33:06.564Z,2.47
2023-04-15T11:35:33.548Z,3.08
2023-04-15T11:38:03.868Z,3.30
2023-04-15T11:40:31.484Z,2.53
2023-04-15T11:43:08.679Z,2.67
2023-04-15T11:45:36.537Z,3.00
2023-04-15T11:50:33.829Z,2.53
2023-04-15T11:53:12.426Z,2.92
2023-04-15T11:55:47.175Z,2.13
2023-04-15T11:58:15.632Z,2.25
2023-04-15T12:00:50.739Z,2.33
2023-04-15T12:03:17.405Z,2.15
2023-04-15T12:06:21.891Z,2.75
2023-04-15T12:09:04.988Z,2.90
2023-04-15T12:11:49.959Z,3.08
2023-04-15T12:14:29.722Z,2.92
2023-04-15T12:17:14.346Z,3.28
2023-04-15T12:19:42.867Z,3.30
2023-04-15T12:22:11.136Z,3.30
2023-04-15T12:24:38.467Z,3.40
2023-04-15T12:27:07.129Z,2.90
2023-04-15T12:29:35.518Z,3.22
2023-04-15T12:32:15.804Z,3.03
2023-04-15T12:34:50.870Z,3.30
2023-04-15T12:37:17.735Z,3.45
2023-04-15T12:39:48.019Z,2.88
2023-04-15T12:42:15.490Z,3.22
2023-04-15T12:44:42.286Z,3.30
2023-04-15T12:47:10.012Z,2.88
2023-04-15T12:49:37.570Z,3.33
2023-04-15T12:52:04.432Z,3.80
2023-04-15T12:54:31.977Z,3.63
2023-04-15T12:56:59.274Z,3.35
2023-04-15T12:59:25.918Z,3.20
2023-04-15T13:01:53.454Z,2.97
2023-04-15T13:04:21.148Z,3.47
2023-04-15T13:06:47.956Z,3.33
2023-04-15T13:09:15.704Z,4.10
2023-04-15T13:14:09.453Z,2.92
2023-04-15T13:16:36.214Z,2.63
2023-04-15T13:19:03.755Z,2.97
2023-04-15T13:21:32.262Z,2.17
2023-04-15T13:23:59.509Z,2.72
2023-04-15T13:26:26.511Z,2.55
2023-04-15T13:28:53.230Z,2.45
2023-04-15T13:31:20.012Z,2.30
2023-04-15T13:33:46.582Z,1.92
2023-04-15T13:36:13.199Z,1.80
2023-04-15T13:38:39.798Z,2.20
2023-04-15T13:41:06.311Z,2.13
2023-04-15T13:43:34.334Z,2.05
2023-04-15T13:46:01.344Z,1.95
2023-04-15T13:48:28.545Z,2.35
2023-04-15T13:50:55.240Z,2.25
2023-04-15T13:53:21.768Z,2.13
2023-04-15T13:56:06.347Z,2.05
2023-04-15T13:58:32.932Z,2.42
2023-04-15T14:00:59.455Z,2.30
2023-04-15T14:03:26.326Z,1.95
2023-04-15T14:05:56.067Z,2.00
2023-04-15T14:08:23.237Z,2.22
2023-04-15T14:10:49.896Z,1.80
2023-04-15T14:13:16.488Z,2.25
2023-04-15T14:15:43.007Z,2.40
2023-04-15T14:18:09.751Z,2.60
2023-04-15T14:20:36.466Z,2.30
2023-04-15T14:23:02.988Z,2.38
2023-04-15T14:25:33.852Z,2.25
2023-04-15T14:28:01.094Z,2.38
2023-04-15T14:30:27.645Z,2.75
2023-04-15T14:32:54.343Z,2.03
2023-04-15T14:35:20.930Z,2.13
2023-04-15T14:37:47.433Z,2.10
2023-04-15T14:40:13.955Z,2.10
2023-04-15T14:42:40.619Z,2.05
2023-04-15T14:45:07.684Z,2.03
2023-04-15T14:47:34.291Z,2.30
2023-04-15T14:50:00.913Z,2.10
2023-04-15T14:52:27.441Z,2.10
2023-04-15T14:54:53.996Z,2.05
2023-04-15T14:57:20.600Z,2.03
2023-04-15T14:59:47.198Z,2.22
2023-04-15T15:02:17.259Z,2.50
2023-04-15T15:04:47.897Z,2.22
2023-04-15T15:07:14.462Z,2.03
2023-04-15T15:09:41.709Z,2.40
2023-04-15T15:12:08.228Z,2.45
2023-04-15T15:14:34.901Z,2.55
2023-04-15T15:17:01.614Z,2.72
2023-04-15T15:19:28.505Z,2.72
2023-04-15T15:21:55.237Z,2.85
2023-04-15T15:24:21.778Z,2.83
2023-04-15T15:26:48.279Z,2.67
2023-04-15T15:29:14.855Z,2.20
2023-04-15T15:31:41.367Z,2.40
2023-04-15T15:34:07.897Z,2.03
2023-04-15T15:36:34.375Z,2.78
2023-04-15T15:39:01.034Z,2.75
2023-04-15T15:41:27.521Z,2.42
2023-04-15T15:43:54.407Z,2.22
2023-04-15T15:46:21.148Z,2.53
2023-04-15T15:48:47.740Z,1.92
2023-04-15T15:51:14.312Z,2.15
2023-04-15T15:53:40.838Z,2.40
2023-04-15T15:56:07.606Z,2.83
2023-04-15T15:58:34.229Z,2.72
2023-04-15T16:01:01.942Z,2.50
2023-04-15T16:03:29.220Z,2.40
2023-04-15T16:05:55.825Z,2.28
2023-04-15T16:08:22.324Z,2.67
2023-04-15T16:10:49.157Z,2.88
2023-04-15T16:13:15.944Z,3.78
2023-04-15T16:15:42.512Z,1.95
2023-04-15T16:18:09.114Z,2.28
2023-04-15T16:20:35.648Z,2.13
2023-04-15T16:23:08.998Z,2.50
2023-04-15T16:25:35.586Z,1.92
2023-04-15T16:28:08.890Z,2.25
2023-04-15T16:30:46.967Z,2.28
2023-04-15T16:35:40.014Z,1.98
2023-04-15T16:38:07.018Z,2.13
2023-04-15T16:40:33.556Z,2.47
2023-04-15T16:43:00.270Z,2.53
2023-04-15T16:45:26.831Z,2.40
2023-04-15T16:47:54.403Z,3.40
2023-04-15T16:50:21.143Z,2.70
2023-04-15T16:52:47.669Z,2.63
2023-04-15T16:55:14.150Z,10.38
2023-04-15T16:58:00.346Z,7.35
2023-04-15T17:00:28.215Z,2.35
2023-04-15T17:02:58.677Z,2.10
2023-04-15T17:05:27.514Z,2.22
2023-04-15T17:07:54.323Z,2.10
2023-04-15T17:10:21.053Z,2.30
2023-04-15T17:12:47.599Z,2.30
2023-04-15T17:15:14.140Z,1.85
2023-04-15T17:17:40.809Z,2.42
2023-04-15T17:20:08.019Z,2.40
2023-04-15T17:22:34.587Z,3.08
2023-04-15T17:25:01.106Z,2.33
2023-04-15T17:27:28.933Z,1.67
2023-04-15T17:29:55.676Z,2.42
2023-04-15T17:32:22.942Z,2.78
2023-04-15T17:34:51.354Z,2.97
2023-04-15T17:37:18.517Z,5.28
2023-04-15T17:39:45.384Z,5.90
2023-04-15T17:42:12.844Z,3.20
2023-04-15T17:44:39.793Z,3.53
2023-04-15T17:47:07.205Z,3.75
2023-04-15T17:49:34.295Z,2.70
2023-04-15T17:52:01.283Z,2.15
2023-04-15T17:54:28.072Z,2.05
2023-04-15T17:56:54.669Z,2.33
2023-04-15T17:59:21.165Z,1.83
2023-04-15T18:01:47.791Z,2.30
2023-04-15T18:04:14.557Z,2.42
2023-04-15T18:06:41.223Z,1.85
2023-04-15T18:09:08.955Z,2.00
2023-04-15T18:11:36.468Z,1.92
2023-04-15T18:14:03.294Z,3.42
2023-04-15T18:16:30.215Z,2.33
2023-04-15T18:18:56.817Z,3.15
2023-04-15T18:21:23.435Z,3.25
2023-04-15T18:23:49.957Z,2.63
2023-04-15T18:26:17.737Z,1.50
2023-04-15T18:28:44.272Z,1.80
2023-04-15T18:31:10.854Z,1.48
2023-04-15T18:33:37.783Z,3.35
2023-04-15T18:36:04.317Z,3.17
2023-04-15T18:38:31.006Z,1.63
2023-04-15T18:40:57.684Z,1.50
2023-04-15T18:43:24.225Z,1.73
2023-04-15T18:45:51.934Z,2.40
2023-04-15T18:48:18.510Z,1.77
2023-04-15T18:50:45.030Z,2.00
2023-04-15T18:53:11.608Z,2.90
2023-04-15T18:55:39.332Z,1.70
2023-04-15T18:58:08.853Z,1.65
2023-04-15T19:00:38.933Z,1.73
2023-04-15T19:03:06.523Z,1.27
2023-04-15T19:05:33.427Z,1.92
2023-04-15T19:07:59.973Z,1.88
2023-04-15T19:10:28.244Z,1.33
2023-04-15T19:12:55.366Z,1.80
2023-04-15T19:15:21.933Z,1.60
2023-04-15T19:17:48.783Z,1.52
2023-04-15T19:20:15.542Z,1.83
2023-04-15T19:22:43.145Z,1.50
2023-04-15T19:25:10.373Z,2.13
2023-04-15T19:27:38.319Z,1.70
2023-04-15T19:30:06.314Z,1.70
2023-04-15T19:32:32.897Z,1.30
2023-04-15T19:34:59.811Z,1.60
2023-04-15T19:37:26.357Z,1.48
2023-04-15T19:39:54.395Z,1.50
2023-04-15T19:42:20.936Z,1.70
2023-04-15T19:44:47.413Z,1.75
2023-04-15T19:47:13.962Z,1.38
2023-04-15T19:49:40.567Z,2.15
2023-04-15T19:52:07.187Z,1.35
2023-04-15T19:54:33.766Z,2.05
2023-04-15T19:57:01.555Z,1.67
2023-04-15T19:59:28.102Z,1.45
2023-04-15T20:01:54.708Z,1.70
2023-04-15T20:04:21.468Z,1.70
2023-04-15T20:06:48.703Z,1.90
2023-04-15T20:09:15.389Z,2.00
2023-04-15T20:12:47.477Z,1.92
2023-04-15T20:14:28.482Z,1.42
2023-04-15T20:16:54.974Z,1.52
2023-04-15T20:19:21.448Z,1.70
2023-04-15T20:21:48.477Z,1.58
2023-04-15T20:24:16.139Z,1.63
2023-04-15T20:26:42.703Z,1.90
2023-04-15T20:29:09.276Z,2.03
2023-04-15T20:31:36.354Z,1.83
2023-04-15T20:34:02.875Z,1.63
2023-04-15T20:36:29.483Z,1.55
2023-04-15T20:38:56.115Z,1.67
2023-04-15T20:41:23.232Z,1.42
2023-04-15T20:43:49.780Z,1.90
2023-04-15T20:46:21.190Z,1.67
2023-04-15T20:48:48.602Z,1.83
2023-04-15T20:51:15.388Z,1.60
2023-04-15T20:53:42.242Z,1.60
2023-04-15T20:56:08.885Z,1.92
2023-04-15T20:58:35.478Z,1.77
2023-04-15T21:01:02.325Z,2.25
2023-04-15T21:03:29.239Z,1.48
2023-04-15T21:05:55.923Z,1.35
2023-04-15T21:08:29.069Z,1.40
2023-04-15T21:10:56.726Z,1.60
2023-04-15T21:13:23.912Z,1.00
2023-04-15T21:15:53.435Z,1.20
2023-04-15T21:18:21.503Z,1.17
2023-04-15T21:20:56.602Z,1.45
2023-04-15T21:23:23.133Z,1.27
2023-04-15T21:25:49.659Z,1.50
2023-04-15T21:28:16.206Z,1.83
2023-04-15T21:30:42.761Z,1.17
2023-04-15T21:33:09.277Z,1.30
2023-04-15T21:35:35.794Z,1.30
2023-04-15T21:38:02.277Z,0.98
2023-04-15T21:40:29.002Z,0.90
2023-04-15T21:42:55.515Z,0.80
2023-04-15T21:45:22.033Z,1.27
2023-04-15T21:47:57.421Z,1.10
2023-04-15T21:50:34.048Z,1.27
2023-04-15T21:53:00.620Z,1.20
2023-04-15T21:55:27.229Z,1.00
2023-04-15T21:57:53.694Z,1.42
2023-04-15T22:00:21.238Z,1.40
2023-04-15T22:02:47.940Z,1.15
2023-04-15T22:05:14.597Z,1.00
2023-04-15T22:07:41.800Z,1.55
2023-04-15T22:10:08.892Z,1.08
2023-04-15T22:12:35.470Z,1.60
2023-04-15T22:15:02.520Z,1.05
2023-04-15T22:17:29.341Z,1.00
2023-04-15T22:19:55.900Z,1.52
2023-04-15T22:22:22.392Z,1.73
2023-04-15T22:25:08.976Z,0.80
2023-04-15T22:27:35.645Z,1.10
2023-04-15T22:30:02.128Z,1.33
2023-04-15T22:32:28.770Z,1.00
2023-04-15T22:34:55.309Z,1.08
2023-04-15T22:37:21.843Z,0.85
2023-04-15T22:39:48.310Z,1.38
2023-04-15T22:42:14.794Z,1.80
2023-04-15T22:44:41.271Z,1.20
2023-04-15T22:47:07.800Z,0.82
2023-04-15T22:49:35.070Z,1.23
2023-04-15T22:52:01.782Z,1.30
2023-04-15T22:54:28.321Z,1.52
2023-04-15T22:56:54.876Z,1.33
2023-04-15T22:59:21.360Z,1.25
2023-04-15T23:01:47.993Z,2.05
2023-04-15T23:04:23.185Z,1.52
2023-04-15T23:06:52.362Z,1.58
2023-04-15T23:09:19.378Z,1.48
2023-04-15T23:11:45.988Z,1.48
2023-04-15T23:14:12.532Z,1.17
2023-04-15T23:16:39.159Z,1.25
2023-04-15T23:19:05.852Z,1.45
2023-04-15T23:21:32.442Z,1.52
2023-04-15T23:23:58.947Z,1.17
2023-04-15T23:26:27.313Z,0.90
2023-04-15T23:28:53.867Z,1.00
2023-04-15T23:31:20.534Z,1.15
2023-04-15T23:33:47.147Z,1.02
2023-04-15T23:36:13.665Z,1.17
2023-04-15T23:38:40.312Z,1.42
2023-04-15T23:41:06.816Z,1.42
2023-04-15T23:43:33.582Z,1.42
2023-04-15T23:46:00.164Z,1.80
2023-04-15T23:48:26.832Z,2.30
2023-04-15T23:50:53.339Z,1.67
2023-04-15T23:53:19.856Z,1.70
2023-04-15T23:55:46.457Z,2.05
2023-04-15T23:58:13.099Z,2.13
